sensor_id;sensor_type;location;lat;lon;timestamp;P1;P2;P0
72307;PMS5003;60257;42.638;23.376;2023-12-28T00:00:02;48.25;41.25;26.25
72307;PMS5003;60257;42.638;23.376;2023-12-28T00:02:28;43.25;40.00;24.75
72307;PMS5003;60257;42.638;23.376;2023-12-28T00:04:53;37.75;36.00;24.75
72307;PMS5003;60257;42.638;23.376;2023-12-28T00:07:18;41.00;38.75;23.00
72307;PMS5003;60257;42.638;23.376;2023-12-28T00:09:44;47.75;41.25;26.25
72307;PMS5003;60257;42.638;23.376;2023-12-28T00:12:09;54.00;42.00;25.00
72307;PMS5003;60257;42.638;23.376;2023-12-28T00:14:35;38.75;33.50;20.00
72307;PMS5003;60257;42.638;23.376;2023-12-28T00:17:00;39.00;37.50;23.00
72307;PMS5003;60257;42.638;23.376;2023-12-28T00:19:25;33.50;31.00;20.00
72307;PMS5003;60257;42.638;23.376;2023-12-28T00:21:51;38.00;35.25;21.25
72307;PMS5003;60257;42.638;23.376;2023-12-28T00:24:16;35.50;31.25;19.00
72307;PMS5003;60257;42.638;23.376;2023-12-28T00:26:44;29.25;25.25;16.50
72307;PMS5003;60257;42.638;23.376;2023-12-28T00:29:10;32.25;29.50;20.50
72307;PMS5003;60257;42.638;23.376;2023-12-28T00:31:35;32.00;29.25;18.00
72307;PMS5003;60257;42.638;23.376;2023-12-28T00:34:00;32.00;32.00;20.25
72307;PMS5003;60257;42.638;23.376;2023-12-28T00:36:26;31.00;27.00;19.00
72307;PMS5003;60257;42.638;23.376;2023-12-28T00:38:52;32.75;29.00;18.00
72307;PMS5003;60257;42.638;23.376;2023-12-28T00:41:17;29.75;27.25;17.00
72307;PMS5003;60257;42.638;23.376;2023-12-28T00:43:43;28.00;25.00;14.25
72307;PMS5003;60257;42.638;23.376;2023-12-28T00:46:08;30.25;29.75;18.00
72307;PMS5003;60257;42.638;23.376;2023-12-28T00:48:34;32.25;29.25;18.00
72307;PMS5003;60257;42.638;23.376;2023-12-28T00:51:00;26.25;23.75;14.50
72307;PMS5003;60257;42.638;23.376;2023-12-28T00:53:26;28.75;24.75;18.00
72307;PMS5003;60257;42.638;23.376;2023-12-28T00:55:51;34.25;33.25;16.25
72307;PMS5003;60257;42.638;23.376;2023-12-28T00:58:17;26.25;24.50;11.50
72307;PMS5003;60257;42.638;23.376;2023-12-28T01:00:42;31.25;27.25;15.25
72307;PMS5003;60257;42.638;23.376;2023-12-28T01:03:08;28.00;26.50;18.00
72307;PMS5003;60257;42.638;23.376;2023-12-28T01:05:33;34.75;30.00;18.50
72307;PMS5003;60257;42.638;23.376;2023-12-28T01:07:59;36.50;27.50;18.25
72307;PMS5003;60257;42.638;23.376;2023-12-28T01:10:24;28.75;23.50;18.75
72307;PMS5003;60257;42.638;23.376;2023-12-28T01:12:50;32.75;32.00;18.75
72307;PMS5003;60257;42.638;23.376;2023-12-28T01:15:15;31.25;28.00;15.00
72307;PMS5003;60257;42.638;23.376;2023-12-28T01:17:42;25.50;23.50;16.25
72307;PMS5003;60257;42.638;23.376;2023-12-28T01:20:08;26.25;26.25;16.25
72307;PMS5003;60257;42.638;23.376;2023-12-28T01:22:33;23.50;23.00;14.00
72307;PMS5003;60257;42.638;23.376;2023-12-28T01:24:59;31.50;27.00;20.00
72307;PMS5003;60257;42.638;23.376;2023-12-28T01:27:24;32.00;30.50;20.00
72307;PMS5003;60257;42.638;23.376;2023-12-28T01:29:49;39.25;34.00;19.00
72307;PMS5003;60257;42.638;23.376;2023-12-28T01:32:15;31.50;28.50;16.25
72307;PMS5003;60257;42.638;23.376;2023-12-28T01:34:40;25.75;23.25;15.25
72307;PMS5003;60257;42.638;23.376;2023-12-28T01:37:07;27.50;25.25;16.75
72307;PMS5003;60257;42.638;23.376;2023-12-28T01:39:33;27.50;26.25;17.75
72307;PMS5003;60257;42.638;23.376;2023-12-28T01:41:58;31.50;30.00;16.75
72307;PMS5003;60257;42.638;23.376;2023-12-28T01:44:23;27.25;23.50;16.50
72307;PMS5003;60257;42.638;23.376;2023-12-28T01:46:49;28.75;28.75;18.00
72307;PMS5003;60257;42.638;23.376;2023-12-28T01:49:15;21.75;21.75;14.00
72307;PMS5003;60257;42.638;23.376;2023-12-28T01:51:41;23.50;23.50;14.75
72307;PMS5003;60257;42.638;23.376;2023-12-28T01:54:07;33.25;31.25;18.75
72307;PMS5003;60257;42.638;23.376;2023-12-28T01:56:33;32.75;29.75;18.75
72307;PMS5003;60257;42.638;23.376;2023-12-28T01:58:59;24.75;23.00;14.75
72307;PMS5003;60257;42.638;23.376;2023-12-28T02:01:25;31.00;25.50;14.75
72307;PMS5003;60257;42.638;23.376;2023-12-28T02:03:51;27.50;27.50;15.00
72307;PMS5003;60257;42.638;23.376;2023-12-28T02:06:17;23.00;22.50;15.00
72307;PMS5003;60257;42.638;23.376;2023-12-28T02:08:44;30.50;29.75;18.00
72307;PMS5003;60257;42.638;23.376;2023-12-28T02:11:09;32.25;26.25;19.50
72307;PMS5003;60257;42.638;23.376;2023-12-28T02:13:35;35.75;32.50;20.25
72307;PMS5003;60257;42.638;23.376;2023-12-28T02:16:16;35.00;31.00;18.75
72307;PMS5003;60257;42.638;23.376;2023-12-28T02:18:47;24.00;24.00;15.50
72307;PMS5003;60257;42.638;23.376;2023-12-28T02:21:16;34.50;32.25;20.75
72307;PMS5003;60257;42.638;23.376;2023-12-28T02:23:47;42.75;38.50;24.50
72307;PMS5003;60257;42.638;23.376;2023-12-28T02:26:14;53.25;46.25;28.25
72307;PMS5003;60257;42.638;23.376;2023-12-28T02:28:40;32.00;28.75;17.75
72307;PMS5003;60257;42.638;23.376;2023-12-28T02:31:05;28.50;26.75;18.00
72307;PMS5003;60257;42.638;23.376;2023-12-28T02:33:36;18.25;18.00;13.25
72307;PMS5003;60257;42.638;23.376;2023-12-28T02:36:09;26.50;24.75;14.75
72307;PMS5003;60257;42.638;23.376;2023-12-28T02:38:36;27.00;21.25;11.00
72307;PMS5003;60257;42.638;23.376;2023-12-28T02:41:03;26.25;25.75;14.25
72307;PMS5003;60257;42.638;23.376;2023-12-28T02:43:29;31.25;28.00;18.75
72307;PMS5003;60257;42.638;23.376;2023-12-28T02:45:55;29.50;26.00;16.00
72307;PMS5003;60257;42.638;23.376;2023-12-28T02:48:20;27.25;24.00;15.00
72307;PMS5003;60257;42.638;23.376;2023-12-28T02:50:46;28.75;24.00;15.00
72307;PMS5003;60257;42.638;23.376;2023-12-28T02:53:11;8.00;8.00;7.00
72307;PMS5003;60257;42.638;23.376;2023-12-28T02:55:37;27.50;24.00;15.00
72307;PMS5003;60257;42.638;23.376;2023-12-28T02:58:03;27.75;27.00;16.25
72307;PMS5003;60257;42.638;23.376;2023-12-28T03:00:28;35.00;31.50;18.00
72307;PMS5003;60257;42.638;23.376;2023-12-28T03:02:54;35.25;30.50;18.00
72307;PMS5003;60257;42.638;23.376;2023-12-28T03:05:19;29.00;26.25;18.75
72307;PMS5003;60257;42.638;23.376;2023-12-28T03:07:45;31.75;29.50;19.00
72307;PMS5003;60257;42.638;23.376;2023-12-28T03:10:11;27.75;27.75;16.00
72307;PMS5003;60257;42.638;23.376;2023-12-28T03:12:36;25.25;22.75;13.00
72307;PMS5003;60257;42.638;23.376;2023-12-28T03:15:02;33.50;27.75;16.50
72307;PMS5003;60257;42.638;23.376;2023-12-28T03:17:28;34.75;30.75;17.25
72307;PMS5003;60257;42.638;23.376;2023-12-28T03:19:55;34.00;28.00;18.50
72307;PMS5003;60257;42.638;23.376;2023-12-28T03:22:21;30.75;27.50;18.00
72307;PMS5003;60257;42.638;23.376;2023-12-28T03:24:47;36.00;32.00;18.00
72307;PMS5003;60257;42.638;23.376;2023-12-28T03:27:13;25.25;22.00;19.25
72307;PMS5003;60257;42.638;23.376;2023-12-28T03:29:40;31.25;25.75;18.00
72307;PMS5003;60257;42.638;23.376;2023-12-28T03:32:07;27.75;23.50;12.25
72307;PMS5003;60257;42.638;23.376;2023-12-28T03:34:32;31.50;27.50;17.00
72307;PMS5003;60257;42.638;23.376;2023-12-28T03:36:59;38.00;29.75;17.75
72307;PMS5003;60257;42.638;23.376;2023-12-28T03:39:24;34.50;32.25;20.50
72307;PMS5003;60257;42.638;23.376;2023-12-28T03:41:49;35.75;32.25;19.25
72307;PMS5003;60257;42.638;23.376;2023-12-28T03:44:15;35.75;33.25;21.75
72307;PMS5003;60257;42.638;23.376;2023-12-28T03:46:40;32.50;30.50;19.75
72307;PMS5003;60257;42.638;23.376;2023-12-28T03:49:06;28.50;28.50;20.00
72307;PMS5003;60257;42.638;23.376;2023-12-28T03:51:31;28.50;26.25;17.00
72307;PMS5003;60257;42.638;23.376;2023-12-28T03:53:57;24.00;22.75;14.00
72307;PMS5003;60257;42.638;23.376;2023-12-28T03:56:26;29.75;27.75;18.00
72307;PMS5003;60257;42.638;23.376;2023-12-28T03:58:53;31.50;30.25;19.00
72307;PMS5003;60257;42.638;23.376;2023-12-28T04:01:22;26.50;25.25;14.50
72307;PMS5003;60257;42.638;23.376;2023-12-28T04:03:48;33.25;32.00;19.00
72307;PMS5003;60257;42.638;23.376;2023-12-28T04:06:14;25.25;24.50;17.00
72307;PMS5003;60257;42.638;23.376;2023-12-28T04:08:40;32.50;29.50;18.25
72307;PMS5003;60257;42.638;23.376;2023-12-28T04:11:06;33.00;29.00;17.75
72307;PMS5003;60257;42.638;23.376;2023-12-28T04:13:32;37.00;33.25;19.25
72307;PMS5003;60257;42.638;23.376;2023-12-28T04:15:57;34.00;32.00;21.00
72307;PMS5003;60257;42.638;23.376;2023-12-28T04:18:22;41.25;35.00;20.75
72307;PMS5003;60257;42.638;23.376;2023-12-28T04:20:48;34.25;33.25;22.50
72307;PMS5003;60257;42.638;23.376;2023-12-28T04:23:14;34.75;34.75;26.00
72307;PMS5003;60257;42.638;23.376;2023-12-28T04:25:39;35.25;31.00;20.25
72307;PMS5003;60257;42.638;23.376;2023-12-28T04:28:05;35.75;31.50;18.00
72307;PMS5003;60257;42.638;23.376;2023-12-28T04:30:32;39.25;35.50;19.00
72307;PMS5003;60257;42.638;23.376;2023-12-28T04:32:57;36.00;32.75;19.50
72307;PMS5003;60257;42.638;23.376;2023-12-28T04:35:22;34.25;31.75;19.25
72307;PMS5003;60257;42.638;23.376;2023-12-28T04:37:48;32.25;32.25;20.25
72307;PMS5003;60257;42.638;23.376;2023-12-28T04:40:13;28.25;24.25;13.50
72307;PMS5003;60257;42.638;23.376;2023-12-28T04:42:39;37.00;33.00;21.00
72307;PMS5003;60257;42.638;23.376;2023-12-28T04:45:06;34.75;31.75;18.75
72307;PMS5003;60257;42.638;23.376;2023-12-28T04:47:32;36.00;31.75;17.50
72307;PMS5003;60257;42.638;23.376;2023-12-28T04:49:57;41.00;38.50;25.00
72307;PMS5003;60257;42.638;23.376;2023-12-28T04:52:23;30.75;30.50;18.25
72307;PMS5003;60257;42.638;23.376;2023-12-28T04:54:48;35.50;31.00;18.75
72307;PMS5003;60257;42.638;23.376;2023-12-28T04:57:13;34.75;32.75;18.00
72307;PMS5003;60257;42.638;23.376;2023-12-28T04:59:39;29.25;24.75;15.50
72307;PMS5003;60257;42.638;23.376;2023-12-28T05:02:05;21.25;20.75;12.75
72307;PMS5003;60257;42.638;23.376;2023-12-28T05:04:30;29.00;23.25;13.25
72307;PMS5003;60257;42.638;23.376;2023-12-28T05:06:56;30.00;20.50;13.75
72307;PMS5003;60257;42.638;23.376;2023-12-28T05:09:21;26.00;23.50;15.25
72307;PMS5003;60257;42.638;23.376;2023-12-28T05:11:46;27.25;26.50;18.25
72307;PMS5003;60257;42.638;23.376;2023-12-28T05:14:12;26.75;22.00;11.00
72307;PMS5003;60257;42.638;23.376;2023-12-28T05:16:37;30.50;29.00;17.25
72307;PMS5003;60257;42.638;23.376;2023-12-28T05:19:03;25.50;23.00;15.25
72307;PMS5003;60257;42.638;23.376;2023-12-28T05:21:28;37.50;33.00;21.00
72307;PMS5003;60257;42.638;23.376;2023-12-28T05:23:53;22.75;19.50;12.50
72307;PMS5003;60257;42.638;23.376;2023-12-28T05:26:19;30.75;30.50;18.00
72307;PMS5003;60257;42.638;23.376;2023-12-28T05:28:44;34.00;30.75;20.25
72307;PMS5003;60257;42.638;23.376;2023-12-28T05:31:10;22.25;14.50;10.00
72307;PMS5003;60257;42.638;23.376;2023-12-28T05:33:35;24.75;24.75;15.75
72307;PMS5003;60257;42.638;23.376;2023-12-28T05:36:00;25.00;21.75;14.00
72307;PMS5003;60257;42.638;23.376;2023-12-28T05:38:26;27.25;24.00;14.00
72307;PMS5003;60257;42.638;23.376;2023-12-28T05:40:51;27.50;26.00;14.75
72307;PMS5003;60257;42.638;23.376;2023-12-28T05:43:16;1.25;1.25;1.00
72307;PMS5003;60257;42.638;23.376;2023-12-28T05:45:42;29.75;25.50;15.50
72307;PMS5003;60257;42.638;23.376;2023-12-28T05:48:07;36.25;29.75;17.00
72307;PMS5003;60257;42.638;23.376;2023-12-28T05:50:33;25.00;22.50;15.00
72307;PMS5003;60257;42.638;23.376;2023-12-28T05:52:58;29.00;25.75;16.75
72307;PMS5003;60257;42.638;23.376;2023-12-28T05:55:23;25.75;25.50;15.00
72307;PMS5003;60257;42.638;23.376;2023-12-28T05:57:49;30.00;24.75;13.75
72307;PMS5003;60257;42.638;23.376;2023-12-28T06:00:14;21.00;17.25;14.25
72307;PMS5003;60257;42.638;23.376;2023-12-28T06:02:41;28.00;26.25;17.00
72307;PMS5003;60257;42.638;23.376;2023-12-28T06:05:06;32.00;21.25;10.75
72307;PMS5003;60257;42.638;23.376;2023-12-28T06:07:32;26.25;23.00;14.00
72307;PMS5003;60257;42.638;23.376;2023-12-28T06:09:58;29.75;25.25;16.00
72307;PMS5003;60257;42.638;23.376;2023-12-28T06:12:25;26.50;23.25;15.25
72307;PMS5003;60257;42.638;23.376;2023-12-28T06:14:50;27.25;26.25;14.00
72307;PMS5003;60257;42.638;23.376;2023-12-28T06:17:16;30.50;29.75;16.50
72307;PMS5003;60257;42.638;23.376;2023-12-28T06:19:43;27.00;26.00;16.50
72307;PMS5003;60257;42.638;23.376;2023-12-28T06:22:08;24.75;21.00;14.00
72307;PMS5003;60257;42.638;23.376;2023-12-28T06:24:37;18.75;18.75;17.75
72307;PMS5003;60257;42.638;23.376;2023-12-28T06:27:03;27.75;22.75;17.00
72307;PMS5003;60257;42.638;23.376;2023-12-28T06:29:28;27.25;21.00;14.00
72307;PMS5003;60257;42.638;23.376;2023-12-28T06:31:54;29.00;26.00;14.25
72307;PMS5003;60257;42.638;23.376;2023-12-28T06:34:19;24.75;22.75;13.00
72307;PMS5003;60257;42.638;23.376;2023-12-28T06:36:44;31.50;26.75;16.75
72307;PMS5003;60257;42.638;23.376;2023-12-28T06:39:10;19.00;18.00;14.25
72307;PMS5003;60257;42.638;23.376;2023-12-28T06:41:35;26.25;26.25;14.00
72307;PMS5003;60257;42.638;23.376;2023-12-28T06:44:01;26.50;23.00;14.00
72307;PMS5003;60257;42.638;23.376;2023-12-28T06:46:26;23.25;22.75;14.25
72307;PMS5003;60257;42.638;23.376;2023-12-28T06:48:51;28.00;26.00;15.00
72307;PMS5003;60257;42.638;23.376;2023-12-28T06:51:17;29.50;26.50;15.50
72307;PMS5003;60257;42.638;23.376;2023-12-28T06:53:44;26.75;26.75;19.00
72307;PMS5003;60257;42.638;23.376;2023-12-28T06:56:09;38.25;34.50;21.75
72307;PMS5003;60257;42.638;23.376;2023-12-28T06:58:35;36.25;33.75;22.25
72307;PMS5003;60257;42.638;23.376;2023-12-28T07:01:02;35.25;34.25;23.00
72307;PMS5003;60257;42.638;23.376;2023-12-28T07:03:29;46.50;40.00;24.75
72307;PMS5003;60257;42.638;23.376;2023-12-28T07:05:57;37.25;33.25;21.50
72307;PMS5003;60257;42.638;23.376;2023-12-28T07:08:23;39.75;38.25;26.00
72307;PMS5003;60257;42.638;23.376;2023-12-28T07:10:49;46.75;41.50;27.75
72307;PMS5003;60257;42.638;23.376;2023-12-28T07:13:14;55.50;45.25;28.25
72307;PMS5003;60257;42.638;23.376;2023-12-28T07:15:39;58.00;48.75;30.25
72307;PMS5003;60257;42.638;23.376;2023-12-28T07:18:05;55.75;47.00;28.75
72307;PMS5003;60257;42.638;23.376;2023-12-28T07:20:30;64.25;52.50;34.75
72307;PMS5003;60257;42.638;23.376;2023-12-28T07:22:56;65.00;51.00;31.75
72307;PMS5003;60257;42.638;23.376;2023-12-28T07:25:21;58.50;49.00;29.25
72307;PMS5003;60257;42.638;23.376;2023-12-28T07:27:46;50.25;44.50;28.25
72307;PMS5003;60257;42.638;23.376;2023-12-28T07:30:12;47.75;42.00;28.25
72307;PMS5003;60257;42.638;23.376;2023-12-28T07:32:38;48.25;42.75;28.50
72307;PMS5003;60257;42.638;23.376;2023-12-28T07:35:03;59.75;47.00;29.00
72307;PMS5003;60257;42.638;23.376;2023-12-28T07:37:29;39.50;38.25;26.50
72307;PMS5003;60257;42.638;23.376;2023-12-28T07:39:54;40.75;36.00;21.75
72307;PMS5003;60257;42.638;23.376;2023-12-28T07:42:20;41.00;32.25;19.00
72307;PMS5003;60257;42.638;23.376;2023-12-28T07:44:45;40.25;34.25;21.00
72307;PMS5003;60257;42.638;23.376;2023-12-28T07:47:11;25.25;23.50;14.50
72307;PMS5003;60257;42.638;23.376;2023-12-28T07:49:37;29.50;26.50;16.50
72307;PMS5003;60257;42.638;23.376;2023-12-28T07:52:02;26.00;26.00;16.00
72307;PMS5003;60257;42.638;23.376;2023-12-28T07:54:28;29.50;28.00;14.75
72307;PMS5003;60257;42.638;23.376;2023-12-28T07:56:53;38.75;37.25;23.25
72307;PMS5003;60257;42.638;23.376;2023-12-28T07:59:19;53.50;43.50;28.25
72307;PMS5003;60257;42.638;23.376;2023-12-28T08:01:44;55.50;46.00;29.50
72307;PMS5003;60257;42.638;23.376;2023-12-28T08:04:10;70.00;55.75;35.50
72307;PMS5003;60257;42.638;23.376;2023-12-28T08:06:36;75.75;59.50;36.00
72307;PMS5003;60257;42.638;23.376;2023-12-28T08:09:01;70.50;56.00;35.00
72307;PMS5003;60257;42.638;23.376;2023-12-28T08:11:27;71.50;57.00;37.00
72307;PMS5003;60257;42.638;23.376;2023-12-28T08:13:53;69.25;54.50;34.00
72307;PMS5003;60257;42.638;23.376;2023-12-28T08:16:19;66.50;53.75;34.25
72307;PMS5003;60257;42.638;23.376;2023-12-28T08:18:44;69.00;54.00;35.00
72307;PMS5003;60257;42.638;23.376;2023-12-28T08:21:10;76.50;56.75;37.00
72307;PMS5003;60257;42.638;23.376;2023-12-28T08:23:35;79.75;61.25;39.25
72307;PMS5003;60257;42.638;23.376;2023-12-28T08:26:01;67.50;53.50;35.75
72307;PMS5003;60257;42.638;23.376;2023-12-28T08:28:27;73.75;59.75;37.25
72307;PMS5003;60257;42.638;23.376;2023-12-28T08:30:53;72.00;54.75;34.50
72307;PMS5003;60257;42.638;23.376;2023-12-28T08:33:18;68.50;55.25;34.00
72307;PMS5003;60257;42.638;23.376;2023-12-28T08:35:44;72.75;56.75;35.50
72307;PMS5003;60257;42.638;23.376;2023-12-28T08:38:09;67.25;51.25;33.00
72307;PMS5003;60257;42.638;23.376;2023-12-28T08:40:36;66.25;55.00;35.50
72307;PMS5003;60257;42.638;23.376;2023-12-28T08:43:01;66.75;52.25;33.25
72307;PMS5003;60257;42.638;23.376;2023-12-28T08:45:26;66.25;54.75;35.50
72307;PMS5003;60257;42.638;23.376;2023-12-28T08:47:52;61.50;50.25;33.75
72307;PMS5003;60257;42.638;23.376;2023-12-28T08:50:17;70.50;55.25;34.75
72307;PMS5003;60257;42.638;23.376;2023-12-28T08:52:42;56.00;47.25;29.75
72307;PMS5003;60257;42.638;23.376;2023-12-28T08:55:08;63.50;53.00;31.00
72307;PMS5003;60257;42.638;23.376;2023-12-28T08:57:33;60.00;50.25;32.50
72307;PMS5003;60257;42.638;23.376;2023-12-28T08:59:59;68.00;55.75;34.25
72307;PMS5003;60257;42.638;23.376;2023-12-28T09:02:28;52.25;44.25;31.00
72307;PMS5003;60257;42.638;23.376;2023-12-28T09:04:54;64.25;50.75;32.00
72307;PMS5003;60257;42.638;23.376;2023-12-28T09:07:19;63.75;51.00;36.00
72307;PMS5003;60257;42.638;23.376;2023-12-28T09:09:45;65.50;54.25;34.00
72307;PMS5003;60257;42.638;23.376;2023-12-28T09:12:11;67.25;53.00;33.25
72307;PMS5003;60257;42.638;23.376;2023-12-28T09:14:36;66.50;54.00;34.50
72307;PMS5003;60257;42.638;23.376;2023-12-28T09:17:02;65.25;53.75;33.50
72307;PMS5003;60257;42.638;23.376;2023-12-28T09:19:27;71.00;56.00;35.25
72307;PMS5003;60257;42.638;23.376;2023-12-28T09:21:53;50.00;41.00;22.00
72307;PMS5003;60257;42.638;23.376;2023-12-28T09:24:18;66.75;54.75;35.50
72307;PMS5003;60257;42.638;23.376;2023-12-28T09:26:44;71.00;56.00;35.25
72307;PMS5003;60257;42.638;23.376;2023-12-28T09:29:09;71.75;56.50;35.25
72307;PMS5003;60257;42.638;23.376;2023-12-28T09:31:35;66.50;54.25;35.00
72307;PMS5003;60257;42.638;23.376;2023-12-28T09:34:00;70.50;57.00;36.25
72307;PMS5003;60257;42.638;23.376;2023-12-28T09:36:25;74.25;59.25;37.50
72307;PMS5003;60257;42.638;23.376;2023-12-28T09:38:51;67.25;55.50;35.50
72307;PMS5003;60257;42.638;23.376;2023-12-28T09:41:16;63.75;52.25;34.25
72307;PMS5003;60257;42.638;23.376;2023-12-28T09:43:53;68.00;54.00;34.00
72307;PMS5003;60257;42.638;23.376;2023-12-28T09:46:23;71.50;58.50;35.00
72307;PMS5003;60257;42.638;23.376;2023-12-28T09:48:51;77.00;59.25;36.00
72307;PMS5003;60257;42.638;23.376;2023-12-28T09:51:19;71.75;55.50;36.00
72307;PMS5003;60257;42.638;23.376;2023-12-28T09:53:44;70.75;56.25;36.25
72307;PMS5003;60257;42.638;23.376;2023-12-28T09:56:11;70.50;56.25;34.00
72307;PMS5003;60257;42.638;23.376;2023-12-28T09:58:42;69.75;56.00;37.00
72307;PMS5003;60257;42.638;23.376;2023-12-28T10:01:09;72.00;58.25;36.25
72307;PMS5003;60257;42.638;23.376;2023-12-28T10:03:35;70.75;54.25;33.75
72307;PMS5003;60257;42.638;23.376;2023-12-28T10:06:00;72.25;56.25;32.75
72307;PMS5003;60257;42.638;23.376;2023-12-28T10:08:26;71.00;57.50;38.25
72307;PMS5003;60257;42.638;23.376;2023-12-28T10:10:51;71.25;56.00;36.75
72307;PMS5003;60257;42.638;23.376;2023-12-28T10:13:19;75.00;60.00;38.00
72307;PMS5003;60257;42.638;23.376;2023-12-28T10:15:46;76.50;60.25;38.75
72307;PMS5003;60257;42.638;23.376;2023-12-28T10:18:11;73.75;59.50;37.00
72307;PMS5003;60257;42.638;23.376;2023-12-28T10:20:37;71.25;57.25;35.00
72307;PMS5003;60257;42.638;23.376;2023-12-28T10:23:03;70.75;58.00;35.25
72307;PMS5003;60257;42.638;23.376;2023-12-28T10:25:30;74.50;59.75;37.75
72307;PMS5003;60257;42.638;23.376;2023-12-28T10:27:57;72.25;57.75;36.00
72307;PMS5003;60257;42.638;23.376;2023-12-28T10:30:23;76.50;59.50;35.75
72307;PMS5003;60257;42.638;23.376;2023-12-28T10:32:48;63.75;51.00;33.00
72307;PMS5003;60257;42.638;23.376;2023-12-28T10:35:14;74.75;59.00;36.25
72307;PMS5003;60257;42.638;23.376;2023-12-28T10:37:40;71.00;57.25;35.25
72307;PMS5003;60257;42.638;23.376;2023-12-28T10:40:07;72.50;58.50;35.50
72307;PMS5003;60257;42.638;23.376;2023-12-28T10:42:37;71.50;57.50;36.00
72307;PMS5003;60257;42.638;23.376;2023-12-28T10:45:14;69.00;54.00;32.50
72307;PMS5003;60257;42.638;23.376;2023-12-28T10:47:46;71.50;57.75;36.75
72307;PMS5003;60257;42.638;23.376;2023-12-28T11:01:10;69.25;55.75;34.75
72307;PMS5003;60257;42.638;23.376;2023-12-28T11:03:40;62.25;51.50;34.00
72307;PMS5003;60257;42.638;23.376;2023-12-28T11:06:10;67.75;54.00;34.00
72307;PMS5003;60257;42.638;23.376;2023-12-28T11:08:37;64.25;52.50;34.75
72307;PMS5003;60257;42.638;23.376;2023-12-28T11:11:07;66.25;54.00;34.00
72307;PMS5003;60257;42.638;23.376;2023-12-28T11:13:34;68.00;53.75;34.50
72307;PMS5003;60257;42.638;23.376;2023-12-28T11:16:00;63.50;52.00;32.75
72307;PMS5003;60257;42.638;23.376;2023-12-28T11:18:26;61.25;50.00;32.00
72307;PMS5003;60257;42.638;23.376;2023-12-28T11:20:53;70.50;56.75;35.00
72307;PMS5003;60257;42.638;23.376;2023-12-28T11:23:19;69.50;54.75;34.25
72307;PMS5003;60257;42.638;23.376;2023-12-28T11:25:45;69.25;53.50;35.00
72307;PMS5003;60257;42.638;23.376;2023-12-28T11:28:11;75.25;59.25;36.50
72307;PMS5003;60257;42.638;23.376;2023-12-28T11:30:37;68.75;54.50;34.50
72307;PMS5003;60257;42.638;23.376;2023-12-28T11:33:06;74.00;58.25;38.00
72307;PMS5003;60257;42.638;23.376;2023-12-28T11:35:35;71.50;56.50;36.00
72307;PMS5003;60257;42.638;23.376;2023-12-28T11:38:02;70.25;57.00;36.25
72307;PMS5003;60257;42.638;23.376;2023-12-28T11:40:39;68.50;56.50;37.25
72307;PMS5003;60257;42.638;23.376;2023-12-28T11:43:13;71.25;58.50;36.25
72307;PMS5003;60257;42.638;23.376;2023-12-28T11:45:50;75.25;59.00;37.00
72307;PMS5003;60257;42.638;23.376;2023-12-28T11:48:23;68.50;55.25;36.00
72307;PMS5003;60257;42.638;23.376;2023-12-28T11:50:59;70.00;57.75;37.00
72307;PMS5003;60257;42.638;23.376;2023-12-28T11:53:25;76.50;57.50;36.50
72307;PMS5003;60257;42.638;23.376;2023-12-28T11:55:51;75.25;62.00;37.00
72307;PMS5003;60257;42.638;23.376;2023-12-28T11:58:17;69.25;57.00;36.25
72307;PMS5003;60257;42.638;23.376;2023-12-28T12:00:43;70.75;56.50;35.25
72307;PMS5003;60257;42.638;23.376;2023-12-28T12:03:12;71.25;57.50;36.75
72307;PMS5003;60257;42.638;23.376;2023-12-28T12:05:37;70.00;56.50;36.50
72307;PMS5003;60257;42.638;23.376;2023-12-28T12:08:04;68.00;54.50;34.75
72307;PMS5003;60257;42.638;23.376;2023-12-28T12:10:30;69.25;55.75;34.25
72307;PMS5003;60257;42.638;23.376;2023-12-28T12:12:57;67.25;55.25;35.25
72307;PMS5003;60257;42.638;23.376;2023-12-28T12:15:23;61.50;49.00;34.00
72307;PMS5003;60257;42.638;23.376;2023-12-28T12:17:48;71.00;56.25;34.50
72307;PMS5003;60257;42.638;23.376;2023-12-28T12:20:14;65.25;52.00;34.25
72307;PMS5003;60257;42.638;23.376;2023-12-28T12:22:40;66.00;53.00;33.50
72307;PMS5003;60257;42.638;23.376;2023-12-28T12:25:05;62.25;49.50;32.25
72307;PMS5003;60257;42.638;23.376;2023-12-28T12:27:33;63.75;50.25;31.00
72307;PMS5003;60257;42.638;23.376;2023-12-28T12:29:59;63.50;50.75;30.25
72307;PMS5003;60257;42.638;23.376;2023-12-28T12:32:24;59.50;48.50;31.25
72307;PMS5003;60257;42.638;23.376;2023-12-28T12:34:50;63.00;51.25;32.50
72307;PMS5003;60257;42.638;23.376;2023-12-28T12:37:16;65.00;51.75;32.75
72307;PMS5003;60257;42.638;23.376;2023-12-28T12:39:42;64.50;51.75;33.00
72307;PMS5003;60257;42.638;23.376;2023-12-28T12:42:14;62.50;51.25;33.25
72307;PMS5003;60257;42.638;23.376;2023-12-28T12:44:40;55.00;45.75;30.00
72307;PMS5003;60257;42.638;23.376;2023-12-28T12:47:06;59.50;49.50;30.25
72307;PMS5003;60257;42.638;23.376;2023-12-28T12:49:32;61.50;49.50;31.50
72307;PMS5003;60257;42.638;23.376;2023-12-28T12:51:57;61.25;48.50;32.00
72307;PMS5003;60257;42.638;23.376;2023-12-28T12:54:23;62.25;51.75;34.00
72307;PMS5003;60257;42.638;23.376;2023-12-28T12:56:49;62.25;51.00;32.50
72307;PMS5003;60257;42.638;23.376;2023-12-28T12:59:16;65.25;52.00;31.00
72307;PMS5003;60257;42.638;23.376;2023-12-28T13:01:45;57.50;47.50;28.50
72307;PMS5003;60257;42.638;23.376;2023-12-28T13:04:13;69.50;54.25;34.75
72307;PMS5003;60257;42.638;23.376;2023-12-28T13:06:39;67.25;55.00;34.00
72307;PMS5003;60257;42.638;23.376;2023-12-28T13:09:04;66.75;54.00;35.00
72307;PMS5003;60257;42.638;23.376;2023-12-28T13:11:32;68.50;56.00;35.25
72307;PMS5003;60257;42.638;23.376;2023-12-28T13:13:58;68.00;54.25;34.00
72307;PMS5003;60257;42.638;23.376;2023-12-28T13:16:24;68.25;53.00;35.00
72307;PMS5003;60257;42.638;23.376;2023-12-28T13:18:49;68.50;53.25;35.00
72307;PMS5003;60257;42.638;23.376;2023-12-28T13:21:14;57.00;46.25;31.00
72307;PMS5003;60257;42.638;23.376;2023-12-28T13:23:40;77.25;65.75;38.25
72307;PMS5003;60257;42.638;23.376;2023-12-28T13:26:05;70.75;56.75;36.50
72307;PMS5003;60257;42.638;23.376;2023-12-28T13:28:30;68.75;54.50;34.00
72307;PMS5003;60257;42.638;23.376;2023-12-28T13:30:56;67.75;53.50;34.00
72307;PMS5003;60257;42.638;23.376;2023-12-28T13:33:22;66.00;52.75;32.75
72307;PMS5003;60257;42.638;23.376;2023-12-28T13:35:52;63.50;52.50;33.50
72307;PMS5003;60257;42.638;23.376;2023-12-28T13:38:30;69.25;54.50;33.00